Flight Track Log - Related Links

Times and Time Zones

All times are in EDT time to prevent confusion due to time zone crossing. See the UAL1177 flight status page for this flight to view local times or setup timezone preferences in your user account.

Time Position Orientation Groundspeed Altitude Reporting Facility
EDT Latitude Longitude Course Direction KTS MPH feet Rate Location/Type
Mon 02:20:01 AM 33.9328 -118.4475 90° East 177 204 1,500  Level Los Angeles Center
Mon 02:21:02 AM 33.8911 -118.5117 232° Southwest 241 277 3,500 2,016 Climbing Los Angeles Center
Mon 02:22:00 AM 33.7729 -118.6306 132° Southeast  Level FlightAware Approximate
Mon 02:22:03 AM 33.8328 -118.5453 206° Southwest 275 316 5,600  Level Los Angeles Center
Mon 02:23:00 AM 33.6902 -118.5252 134° Southeast  Level FlightAware Approximate
Mon 02:23:03 AM 33.7556 -118.5306 171° South 284 327 8,200  Level Los Angeles Center
Mon 02:24:00 AM 33.6534 -118.3900 121° Southeast  Level FlightAware Approximate
Mon 02:24:04 AM 33.6867 -118.4897 154° Southeast 296 341 10,700  Level Los Angeles Center
Mon 02:25:00 AM 33.6333 -118.2519 90° East  Level FlightAware Approximate
Mon 02:25:05 AM 33.6550 -118.3719 108° East 324 373 12,400  Level Los Angeles Center
Mon 02:26:06 AM 33.6969 -118.2631 65° Northeast 382 440 13,900 1,918 Climbing Los Angeles Center
Mon 02:27:07 AM 33.7444 -118.1511 63° Northeast 384 442 16,300 2,678 Climbing Los Angeles Center
Mon 02:28:07 AM 33.7972 -118.0414 60° Northeast 387 445 19,300 2,479 Climbing Los Angeles Center
Mon 02:29:08 AM 33.8800 -117.9683 36° Northeast 375 432 21,300 1,869 Climbing Los Angeles Center
Mon 02:30:09 AM 33.9642 -117.8917 37° Northeast 380 437 23,100 1,636 Climbing Los Angeles Center
Mon 02:31:09 AM 34.0517 -117.8119 37° Northeast 393 452 24,600 1,488 Climbing Los Angeles Center
Mon 02:32:10 AM 34.1336 -117.7186 43° Northeast 405 466 26,100 1,279 Climbing Los Angeles Center
Mon 02:33:11 AM 34.2256 -117.5939 48° Northeast 416 479 27,200 793 Climbing Los Angeles Center
Mon 02:34:11 AM 34.3083 -117.4803 49° Northeast 445 512 27,700 793 Climbing Los Angeles Center
Mon 02:35:12 AM 34.3939 -117.3636 48° Northeast 462 532 28,800 1,180 Climbing Los Angeles Center
Mon 02:36:13 AM 34.4717 -117.2569 48° Northeast 466 536 30,100 1,279 Climbing Los Angeles Center
Mon 02:37:14 AM 34.5544 -117.1414 49° Northeast 460 529 31,400 1,388 Climbing Los Angeles Center
Mon 02:38:14 AM 34.6372 -117.0275 49° Northeast 455 524 32,900 1,289 Climbing Los Angeles Center
Mon 02:39:15 AM 34.7175 -116.9161 49° Northeast 444 511 34,000 541 Climbing Los Angeles Center
Mon 02:40:16 AM 34.7972 -116.8053 49° Northeast 441 507 34,000  Level Los Angeles Center
Mon 02:41:16 AM 34.8769 -116.6928 49° Northeast 441 507 34,000 99 Level Los Angeles Center
Mon 02:42:17 AM 34.9736 -116.5589 49° Northeast 442 509 34,200 443 Climbing Los Angeles Center
Mon 02:43:18 AM 35.0603 -116.4525 45° Northeast 442 509 34,900 397 Climbing Los Angeles Center
Mon 02:44:18 AM 35.1453 -116.3456 46° Northeast 442 509 35,000 50 Climbing Los Angeles Center
Mon 02:45:19 AM 35.2314 -116.2361 46° Northeast 446 513 35,000  Level Los Angeles Center
Mon 02:46:20 AM 35.3200 -116.1261 45° Northeast 444 511 35,000  Level Los Angeles Center
Mon 02:47:20 AM 35.4042 -116.0208 46° Northeast 446 513 35,000  Level Los Angeles Center
Mon 02:48:21 AM 35.4900 -115.9111 46° Northeast 447 514 35,000  Level Los Angeles Center
Mon 02:49:21 AM 35.5783 -115.7994 46° Northeast 444 511 35,000  Level Los Angeles Center
Mon 02:50:22 AM 35.6633 -115.6919 46° Northeast 442 509 35,000  Level Los Angeles Center
Mon 02:51:23 AM 35.7478 -115.5836 46° Northeast 441 507 35,000  Level Los Angeles Center
Mon 02:52:36 AM 35.8497 -115.4564 45° Northeast 437 503 35,000  Level Los Angeles Center
Mon 02:53:36 AM 35.9353 -115.3458 46° Northeast 443 510 35,000  Level Los Angeles Center
Mon 02:54:37 AM 36.0214 -115.2344 46° Northeast 449 517 35,000  Level Los Angeles Center
Mon 02:55:37 AM 36.1036 -115.0808 56° Northeast 456 525 35,000  Level Los Angeles Center
Mon 02:56:38 AM 36.1497 -114.9344 69° East 459 528 35,000  Level Los Angeles Center
Mon 02:57:39 AM 36.1947 -114.7869 69° East 459 528 35,000  Level Los Angeles Center
Mon 02:58:39 AM 36.2397 -114.6394 69° East 460 529 35,000  Level Los Angeles Center
Mon 02:59:40 AM 36.2856 -114.4914 69° East 460 529 35,000  Level Los Angeles Center
Mon 03:00:40 AM 36.3306 -114.3428 69° East 461 531 35,000  Level Los Angeles Center
Mon 03:01:41 AM 36.3758 -114.1942 69° East 461 531 35,000  Level Los Angeles Center
Mon 03:02:41 AM 36.4194 -114.0447 70° East 461 531 35,000  Level Los Angeles Center
Mon 03:03:42 AM 36.4633 -113.8961 70° East 461 531 35,000  Level Los Angeles Center
Mon 03:04:43 AM 36.5078 -113.7469 70° East 461 531 35,000  Level Los Angeles Center
Mon 03:05:43 AM 36.5500 -113.6008 70° East 456 525 35,000  Level Los Angeles Center
Mon 03:06:44 AM 36.5933 -113.4503 70° East 458 527 35,000  Level Los Angeles Center
Mon 03:07:44 AM 36.6381 -113.3000 70° East 463 533 35,000  Level Los Angeles Center
Mon 03:08:45 AM 36.6817 -113.1497 70° East 463 533 35,000  Level Los Angeles Center
Mon 03:09:45 AM 36.7247 -112.9983 70° East 464 534 35,000  Level Los Angeles Center
Mon 03:10:46 AM 36.7678 -112.8475 70° East 464 534 35,000  Level Los Angeles Center
Mon 03:11:46 AM 36.8108 -112.6972 70° East 464 534 35,000  Level Los Angeles Center
Mon 03:12:47 AM 36.8542 -112.5453 70° East 466 536 35,000  Level Los Angeles Center
Mon 03:13:47 AM 36.9064 -112.3617 70° East 469 540 35,000  Level Los Angeles Center
Mon 03:14:47 AM 36.9481 -112.2089 71° East 469 540 35,000  Level Los Angeles Center
Mon 03:15:53 AM 36.9900 -112.0592 71° East 465 535 35,000  Level Denver Center
Mon 03:16:53 AM 37.0331 -111.9064 71° East 467 537 35,000  Level Denver Center
Mon 03:17:54 AM 37.0747 -111.7533 71° East 467 537 35,000  Level Denver Center
Mon 03:18:54 AM 37.1169 -111.6014 71° East 465 535 35,000  Level Denver Center
Mon 03:19:55 AM 37.1581 -111.4481 71° East 466 536 35,000  Level Denver Center
Mon 03:20:55 AM 37.1997 -111.2936 71° East 470 541 35,000  Level Denver Center
Mon 03:21:56 AM 37.2419 -111.1372 71° East 473 544 35,000  Level Denver Center
Mon 03:22:56 AM 37.2842 -110.9808 71° East 476 548 35,000  Level Denver Center
Mon 03:23:57 AM 37.3244 -110.8256 72° East 470 541 35,000  Level Denver Center
Mon 03:24:57 AM 37.3661 -110.6689 71° East 475 547 35,000  Level Denver Center
Mon 03:25:58 AM 37.4164 -110.4803 71° East 475 547 35,000  Level Denver Center
Mon 03:26:58 AM 37.4578 -110.3247 71° East 472 543 35,000  Level Denver Center
Mon 03:27:59 AM 37.4933 -110.1831 72° East 471 542 35,000  Level Denver Center
Mon 03:28:59 AM 37.5394 -110.0086 72° East 470 541 35,000  Level Denver Center
Mon 03:30:00 AM 37.5775 -109.8558 73° East 475 547 35,000  Level Denver Center
Mon 03:31:00 AM 37.6164 -109.7033 72° East 476 548 35,000  Level Denver Center
Mon 03:32:01 AM 37.6542 -109.5533 72° East 469 540 35,000  Level Denver Center
Mon 03:33:01 AM 37.6992 -109.3733 72° East 478 550 35,000  Level Denver Center
Mon 03:34:01 AM 37.7372 -109.2208 72° East 476 548 35,000  Level Denver Center
Mon 03:35:02 AM 37.7753 -109.0656 73° East 481 554 35,000  Level Denver Center
Mon 03:37:15 AM 37.8900 -108.7181 67° East 476 548 35,000  Level Denver Center
Mon 03:38:15 AM 37.9442 -108.5700 65° Northeast 481 554 35,000  Level Denver Center
Mon 03:39:16 AM 38.0083 -108.3964 65° Northeast 485 558 35,000  Level Denver Center
Mon 03:40:16 AM 38.0625 -108.2522 64° Northeast 477 549 35,000  Level Denver Center
Mon 03:41:17 AM 38.1236 -108.0861 65° Northeast 482 555 35,000  Level Denver Center
Mon 03:42:17 AM 38.1761 -107.9422 65° Northeast 475 547 35,000  Level Denver Center
Mon 03:43:18 AM 38.2297 -107.7958 65° Northeast 476 548 35,000  Level Denver Center
Mon 03:44:18 AM 38.2914 -107.6250 65° Northeast 478 550 35,000  Level Denver Center
Mon 03:45:19 AM 38.3439 -107.4769 66° East 479 551 35,000  Level Denver Center
Mon 03:46:19 AM 38.3978 -107.3300 65° Northeast 480 552 35,000  Level Denver Center
Mon 03:47:20 AM 38.4533 -107.1733 66° East 481 554 35,000  Level Denver Center
Mon 03:48:20 AM 38.5086 -107.0178 66° East 485 558 35,000  Level Denver Center
Mon 03:49:20 AM 38.5642 -106.8619 65° Northeast 484 557 35,000  Level Denver Center
Mon 03:50:21 AM 38.6194 -106.7050 66° East 485 558 35,000  Level Denver Center
Mon 03:51:21 AM 38.6744 -106.5481 66° East 485 558 35,000  Level Denver Center
Mon 03:52:22 AM 38.7281 -106.3917 66° East 483 556 35,000  Level Denver Center
Mon 03:53:22 AM 38.7828 -106.2325 66° East 488 562 35,000  Level Denver Center
Mon 03:54:23 AM 38.8425 -106.0600 66° East 487 560 35,000  Level Denver Center
Mon 03:55:23 AM 38.8978 -105.8992 66° East 488 562 35,000  Level Denver Center
Mon 03:56:24 AM 38.9528 -105.7375 66° East 489 563 35,000  Level Denver Center
Mon 03:57:24 AM 39.0069 -105.5722 67° East 494 568 35,000  Level Denver Center
Mon 03:58:25 AM 39.0642 -105.4092 66° East 498 573 35,000  Level Denver Center
Mon 03:59:25 AM 39.1192 -105.2433 67° East 500 575 35,000  Level Denver Center
Mon 04:00:25 AM 39.1747 -105.0781 67° East 498 573 35,000  Level Denver Center
Mon 04:01:26 AM 39.2289 -104.9133 67° East 498 573 35,000  Level Denver Center
Mon 04:02:26 AM 39.2822 -104.7500 67° East 493 567 35,000  Level Denver Center
Mon 04:03:27 AM 39.3358 -104.5864 67° East 496 571 35,000  Level Denver Center
Mon 04:04:27 AM 39.3892 -104.4244 67° East 494 568 35,000  Level Denver Center
Mon 04:05:28 AM 39.4419 -104.2589 68° East 497 572 35,000  Level Denver Center
Mon 04:06:28 AM 39.4950 -104.0961 67° East 491 565 35,000  Level Denver Center
Mon 04:07:29 AM 39.5478 -103.9281 68° East 497 572 35,000  Level Denver Center
Mon 04:08:29 AM 39.6003 -103.7625 68° East 494 568 35,000  Level Denver Center
Mon 04:09:30 AM 39.6525 -103.5969 68° East 492 566 35,000  Level Denver Center
Mon 04:10:30 AM 39.7047 -103.4303 68° East 496 571 35,000  Level Denver Center
Mon 04:11:31 AM 39.7575 -103.2642 67° East 494 568 35,000  Level Denver Center
Mon 04:12:31 AM 39.8089 -103.0958 68° East 498 573 35,000  Level Denver Center
Mon 04:13:32 AM 39.8608 -102.9278 68° East 497 572 35,000  Level Denver Center
Mon 04:14:32 AM 39.9125 -102.7589 68° East 498 573 35,000  Level Denver Center
Mon 04:15:33 AM 39.9672 -102.5814 68° East 499 574 35,000  Level Denver Center
Mon 04:16:33 AM 40.0150 -102.4211 69° East 497 572 35,000  Level Denver Center
Mon 04:17:33 AM 40.0636 -102.2589 69° East 501 577 35,000  Level Denver Center
Mon 04:18:34 AM 40.1186 -102.0725 69° East 495 570 35,000  Level Denver Center
Mon 04:19:34 AM 40.1669 -101.9117 68° East 495 570 35,000  Level Denver Center
Mon 04:20:35 AM 40.2150 -101.7503 69° East 498 573 35,000  Level Denver Center
Mon 04:21:35 AM 40.2703 -101.5606 69° East 500 575 35,000  Level Denver Center
Mon 04:22:36 AM 40.3175 -101.3983 69° East 499 574 35,000  Level Denver Center
Mon 04:23:36 AM 40.3628 -101.2392 69° East 490 564 35,000 50 Level Denver Center
Mon 04:24:37 AM 40.4142 -101.0600 69° East 475 547 35,100 347 Climbing Denver Center
Mon 04:25:37 AM 40.4592 -100.9044 69° East 478 550 35,700 750 Climbing Denver Center
Mon 04:26:37 AM 40.5164 -100.7561 63° Northeast 480 552 36,600 645 Climbing Denver Center
Mon 04:27:38 AM 40.5803 -100.5822 64° Northeast 479 551 37,000 198 Climbing Denver Center
Mon 04:28:38 AM 40.6367 -100.4308 64° Northeast 487 560 37,000  Level Denver Center
Mon 04:29:39 AM 40.6936 -100.2764 64° Northeast 492 566 37,000  Level Denver Center
Mon 04:30:39 AM 40.7594 -100.0947 64° Northeast 495 570 37,000  Level Denver Center
Mon 04:31:39 AM 40.8164 -99.9381 64° Northeast 496 571 37,000  Level Denver Center
Mon 04:32:40 AM 40.8683 -99.7942 64° Northeast 495 570 37,000  Level Denver Center
Mon 04:33:40 AM 40.9286 -99.6289 64° Northeast 496 571 37,000  Level Denver Center
Mon 04:34:41 AM 40.9992 -99.4306 65° Northeast 496 571 37,000  Level Denver Center
Mon 04:35:41 AM 41.0583 -99.2656 65° Northeast 495 570 37,000  Level Denver Center
Mon 04:36:41 AM 41.1167 -99.1008 65° Northeast 494 568 37,000  Level Denver Center
Mon 04:37:10 AM 41.1375 -99.0419 65° Northeast 493 567 37,000  Level Minneapolis Center
Mon 04:37:42 AM 41.1647 -98.9358 71° East 497 572 37,000  Level Denver Center
Mon 04:38:10 AM 41.1747 -98.8661 79° East 494 568 37,000  Level Minneapolis Center
Mon 04:39:10 AM 41.2081 -98.6861 76° East 500 575 37,000  Level Minneapolis Center
Mon 04:40:11 AM 41.2417 -98.5069 76° East 501 577 37,000  Level Minneapolis Center
Mon 04:41:11 AM 41.2725 -98.3400 76° East 499 574 37,000  Level Minneapolis Center
Mon 04:42:12 AM 41.3044 -98.1594 77° East 501 577 37,000  Level Minneapolis Center
Mon 04:43:12 AM 41.3400 -97.9656 76° East 505 581 37,000  Level Minneapolis Center
Mon 04:44:12 AM 41.3736 -97.7833 76° East 507 583 37,000  Level Minneapolis Center
Mon 04:45:13 AM 41.4056 -97.6019 77° East 505 581 37,000  Level Minneapolis Center
Mon 04:46:13 AM 41.4381 -97.4219 76° East 501 577 37,000  Level Minneapolis Center
Mon 04:47:13 AM 41.4686 -97.2419 77° East 500 575 37,000  Level Minneapolis Center
Mon 04:48:14 AM 41.5006 -97.0611 77° East 499 574 37,000  Level Minneapolis Center
Mon 04:49:14 AM 41.5319 -96.8819 77° East 498 573 37,000  Level Minneapolis Center
Mon 04:50:15 AM 41.5614 -96.7003 78° East 499 574 37,000  Level Minneapolis Center
Mon 04:51:15 AM 41.5917 -96.5189 77° East 498 573 37,000  Level Minneapolis Center
Mon 04:52:15 AM 41.6244 -96.3122 78° East 503 579 37,000  Level Minneapolis Center
Mon 04:53:16 AM 41.6514 -96.1483 78° East 506 582 37,000  Level Minneapolis Center
Mon 04:54:16 AM 41.6831 -95.9633 77° East 505 581 37,000  Level Minneapolis Center
Mon 04:55:16 AM 41.7125 -95.7778 78° East 505 581 37,000  Level Minneapolis Center
Mon 04:56:17 AM 41.7414 -95.5928 78° East 506 582 37,000  Level Minneapolis Center
Mon 04:57:29 AM 41.7764 -95.3711 78° East 505 581 37,000  Level Minneapolis Center
Mon 04:58:30 AM 41.8050 -95.1864 78° East 506 582 37,000  Level Minneapolis Center
Mon 04:59:30 AM 41.8328 -95.0008 79° East 506 582 37,000  Level Minneapolis Center
Mon 05:00:30 AM 41.8594 -94.8175 79° East 502 578 37,000  Level Minneapolis Center
Mon 05:01:31 AM 41.8872 -94.6358 78° East 498 573 37,000  Level Minneapolis Center
Mon 05:02:31 AM 41.9136 -94.4533 79° East 498 573 37,000  Level Minneapolis Center
Mon 05:03:32 AM 41.9408 -94.2719 79° East 496 571 37,000  Level Minneapolis Center
Mon 05:04:32 AM 41.9678 -94.0894 79° East 497 572 37,000  Level Minneapolis Center
Mon 05:05:32 AM 41.9942 -93.9064 79° East 497 572 37,000  Level Minneapolis Center
Mon 05:06:33 AM 42.0206 -93.7222 79° East 500 575 37,000  Level Minneapolis Center
Mon 05:07:33 AM 42.0450 -93.5417 80° East 497 572 37,000  Level Minneapolis Center
Mon 05:08:33 AM 42.0700 -93.3611 79° East 497 572 37,000  Level Minneapolis Center
Mon 05:09:34 AM 42.0881 -93.1814 82° East 492 566 37,000  Level Minneapolis Center
Mon 05:10:34 AM 42.1017 -93.0000 84° East 492 566 37,000  Level Minneapolis Center
Mon 05:11:34 AM 42.1169 -92.8203 83° East 490 564 37,000  Level Minneapolis Center
Mon 05:12:35 AM 42.1331 -92.6042 84° East 489 563 37,000  Level Minneapolis Center
Mon 05:13:35 AM 42.1475 -92.4253 84° East 489 563 37,000  Level Minneapolis Center
Mon 05:14:36 AM 42.1606 -92.2442 84° East 490 564 37,000  Level Minneapolis Center
Mon 05:15:36 AM 42.1742 -92.0633 84° East 491 565 37,000  Level Minneapolis Center
Mon 05:16:17 AM 42.1811 -91.9511 85° East 494 568 37,000  Level Chicago Center
Mon 05:17:17 AM 42.1944 -91.7694 84° East 494 568 37,000  Level Chicago Center
Mon 05:18:18 AM 42.2072 -91.5881 85° East 495 570 37,000  Level Chicago Center
Mon 05:19:18 AM 42.2217 -91.3683 85° East 497 572 37,000  Level Chicago Center
Mon 05:20:18 AM 42.2336 -91.1883 85° East 495 570 37,000  Level Chicago Center
Mon 05:21:19 AM 42.2450 -91.0069 85° East 492 566 37,000  Level Chicago Center
Mon 05:22:19 AM 42.2553 -90.8278 86° East 489 563 37,000 -1,041 Level Chicago Center
Mon 05:23:20 AM 42.2669 -90.6447 85° East 496 571 34,900 -2,529 Descending Chicago Center
Mon 05:24:20 AM 42.2783 -90.4636 85° East 493 567 31,900 -2,850 Descending Chicago Center
Mon 05:25:20 AM 42.2875 -90.2817 86° East 493 567 29,200 -2,529 Descending Chicago Center
Mon 05:26:21 AM 42.2972 -90.1056 86° East 478 550 26,800 -2,331 Descending Chicago Center
Mon 05:27:21 AM 42.3075 -89.9364 85° East 456 525 24,500 -2,231 Descending Chicago Center
Mon 05:28:22 AM 42.3156 -89.7661 86° East 443 510 22,300 -2,132 Descending Chicago Center
Mon 05:29:22 AM 42.3236 -89.6061 86° East 430 495 20,200 -2,100 Descending Chicago Center
Mon 05:30:22 AM 42.3306 -89.4558 86° East 407 468 18,100 -2,132 Descending Chicago Center
Mon 05:31:23 AM 42.3381 -89.3064 86° East 400 460 15,900 -1,983 Descending Chicago Center
Mon 05:32:23 AM 42.3456 -89.1622 86° East 389 448 14,100 -893 Descending Chicago Center
Mon 05:33:24 AM 42.3517 -89.0244 87° East 372 428 14,100 -347 Level Chicago Center
Mon 05:34:24 AM 42.3575 -88.8872 87° East 366 421 13,400 -1,500 Descending Chicago Center
Mon 05:35:24 AM 42.3644 -88.7322 86° East 356 410 11,100 -1,587 Descending Chicago Center
Mon 05:36:25 AM 42.3692 -88.6056 87° East 342 394 10,200 -992 Descending Chicago Center
Mon 05:37:25 AM 42.3358 -88.5044 114° Southeast 305 351 9,100 -1,150 Descending Chicago Center
Mon 05:38:25 AM 42.2964 -88.4222 123° Southeast 293 337 7,900 -1,339 Descending Chicago Center
Mon 05:39:26 AM 42.2539 -88.3300 122° Southeast 292 336 6,400 -1,339 Descending Chicago Center
Mon 05:40:26 AM 42.2122 -88.2394 122° Southeast 287 330 5,200 -1,190 Descending Chicago Center
Mon 05:41:27 AM 42.1714 -88.1528 122° Southeast 280 322 4,000 -595 Descending Chicago Center
Mon 05:42:27 AM 42.1267 -88.0881 133° Southeast 248 285 4,000 -237 Level Chicago Center
Mon 05:42:43 AM 42.1000 -88.0667 149° Southeast 229 264 3,700 -1,184 Descending Chicago TRACON
Mon 05:43:43 AM 42.0667 -88.0167 132° Southeast 205 236 2,500 -1,200 Descending Chicago TRACON

Login

Don't have an account? Register now (free) for customized features, flight alerts, and more!